Time;durP1;ratioP1;P1;durP2;ratioP2;P2;SDS_P1;SDS_P2;PMS_P1;PMS_P2;Temp;Humidity;BMP_temperature;BMP_pressure;BME280_temperature;BME280_humidity;BME280_pressure;Samples;Min_cycle;Max_cycle;Signal;HPM_P1;HPM_P2
2024/01/10 00:02:04;;;;;;;20.38;10.70;;;-2.70;99.90;;;-4.88;93.45;103191.31;6151298;23;20005;-79
2024/01/10 00:04:30;;;;;;;24.10;13.75;;;-2.70;99.90;;;-4.77;94.15;103195.38;6112062;23;20025;-78
2024/01/10 00:06:56;;;;;;;23.77;13.57;;;-2.80;99.90;;;-4.71;94.19;103184.53;6056765;23;20563;-78
2024/01/10 00:09:22;;;;;;;25.25;13.63;;;-2.80;99.90;;;-4.78;94.03;103179.84;6134692;23;20016;-78
2024/01/10 00:11:48;;;;;;;25.65;14.63;;;-2.80;99.90;;;-4.92;93.72;103171.38;6122949;23;20096;-79
2024/01/10 00:14:17;;;;;;;26.77;14.13;;;-2.80;99.90;;;-4.81;94.30;103178.00;6154236;23;20027;-78
2024/01/10 00:16:44;;;;;;;21.10;12.43;;;-2.80;99.90;;;-4.75;94.44;103170.63;6111860;23;20016;-78
2024/01/10 00:19:09;;;;;;;23.10;13.45;;;-2.80;99.90;;;-4.67;94.48;103165.91;6121419;23;20348;-78
2024/01/10 00:21:36;;;;;;;26.23;14.25;;;-2.80;99.90;;;-4.60;94.20;103170.59;6142058;23;20009;-77
2024/01/10 00:24:01;;;;;;;24.48;13.88;;;-2.70;99.90;;;-4.54;93.70;103165.75;6133006;23;20135;-79
2024/01/10 00:26:27;;;;;;;22.77;12.93;;;-2.70;99.90;;;-4.53;93.45;103164.97;6125010;23;20017;-78
2024/01/10 00:28:53;;;;;;;29.75;15.20;;;-2.70;99.90;;;-4.47;93.82;103166.09;6115057;23;20402;-78
2024/01/10 00:31:19;;;;;;;26.00;14.85;;;-2.70;99.90;;;-4.45;93.37;103170.56;6130871;23;20705;-77
2024/01/10 00:33:47;;;;;;;29.67;15.50;;;-2.70;99.90;;;-4.45;93.00;103161.91;6125529;23;20458;-78
2024/01/10 00:36:13;;;;;;;27.13;15.23;;;-2.70;99.90;;;-4.42;92.57;103152.69;6125333;23;20036;-79
2024/01/10 00:38:39;;;;;;;26.00;14.52;;;-2.60;99.90;;;-4.36;92.66;103153.03;6127712;23;20564;-78
2024/01/10 00:41:05;;;;;;;26.83;15.25;;;-2.60;99.90;;;-4.33;92.46;103158.31;6116661;23;20525;-78
2024/01/10 00:43:31;;;;;;;26.42;14.70;;;-2.60;99.90;;;-4.42;92.33;103151.81;6105417;23;20107;-79
2024/01/10 00:45:57;;;;;;;26.13;15.45;;;-2.60;99.90;;;-4.48;92.54;103151.47;6140942;22;20615;-79
2024/01/10 00:48:26;;;;;;;28.15;15.98;;;-2.60;99.90;;;-4.59;92.87;103148.34;6125821;22;20047;-79
2024/01/10 00:50:52;;;;;;;25.75;14.35;;;-2.70;99.90;;;-4.71;93.12;103143.38;6092456;23;20103;-78
2024/01/10 00:53:17;;;;;;;24.73;14.60;;;-2.70;99.90;;;-4.78;93.29;103139.59;6125472;22;20106;-80
2024/01/10 00:55:43;;;;;;;26.50;14.27;;;-2.80;99.90;;;-4.82;93.01;103139.34;6123464;23;20047;-80
2024/01/10 00:58:09;;;;;;;28.27;14.73;;;-2.80;99.90;;;-4.92;93.86;103137.97;6124612;22;20008;-78
2024/01/10 01:00:36;;;;;;;26.40;15.05;;;-2.80;99.90;;;-4.82;93.72;103124.81;6138587;22;20023;-80
2024/01/10 01:03:09;;;;;;;29.17;15.35;;;-2.90;99.90;;;-4.79;93.52;103125.00;6064450;22;20035;-79
2024/01/10 01:05:37;;;;;;;27.27;15.77;;;-2.90;99.90;;;-4.79;93.99;103124.13;6087214;23;20023;-80
2024/01/10 01:08:03;;;;;;;28.92;14.73;;;-2.90;99.90;;;-4.87;93.72;103115.09;6152153;22;20399;-77
2024/01/10 01:10:33;;;;;;;26.08;15.32;;;-2.90;99.90;;;-4.89;93.86;103116.69;6102899;23;20017;-79
2024/01/10 01:12:59;;;;;;;25.73;14.77;;;-3.00;99.90;;;-4.90;93.35;103114.91;6095500;23;20011;-78
2024/01/10 01:15:25;;;;;;;27.80;15.57;;;-3.00;99.90;;;-4.95;94.02;103115.56;6109250;23;20080;-78
2024/01/10 01:17:51;;;;;;;30.70;15.98;;;-3.10;99.90;;;-4.94;93.46;103116.44;6134546;23;20009;-78
2024/01/10 01:20:16;;;;;;;32.80;17.10;;;-3.00;99.90;;;-4.85;93.70;103129.78;6104062;23;20068;-78
2024/01/10 01:22:42;;;;;;;32.75;16.63;;;-3.00;99.90;;;-4.79;93.18;103130.13;6094307;23;20009;-78
2024/01/10 01:25:08;;;;;;;29.23;16.48;;;-2.90;99.90;;;-4.79;93.55;103135.28;6109350;23;20075;-78
2024/01/10 01:27:42;;;;;;;31.15;16.13;;;-2.90;99.90;;;-4.85;93.31;103128.91;6125172;22;20095;-78
2024/01/10 01:30:08;;;;;;;22.98;13.82;;;-3.00;99.90;;;-5.12;93.46;103123.13;6118266;22;20028;-80
2024/01/10 01:32:34;;;;;;;29.90;15.90;;;-3.00;99.90;;;-5.09;94.27;103123.31;6184918;22;20077;-80
2024/01/10 01:35:03;;;;;;;28.38;15.80;;;-3.10;99.90;;;-5.03;94.44;103119.38;6149978;22;20090;-78
2024/01/10 01:37:31;;;;;;;28.65;14.90;;;-3.10;99.90;;;-5.18;94.99;103129.69;6168963;23;20043;-78
2024/01/10 01:39:57;;;;;;;35.42;17.60;;;-3.10;99.90;;;-5.09;94.92;103138.72;6119484;22;20042;-80
2024/01/10 01:42:22;;;;;;;31.27;17.08;;;-3.10;99.90;;;-5.05;94.65;103135.53;6143414;22;20083;-79
2024/01/10 01:44:48;;;;;;;33.72;17.98;;;-3.10;99.90;;;-5.10;94.71;103140.38;6099248;23;20111;-79
2024/01/10 01:47:15;;;;;;;34.42;18.88;;;-3.10;99.90;;;-5.12;94.62;103138.53;6150142;22;20012;-78
2024/01/10 01:49:44;;;;;;;29.75;15.18;;;-3.20;99.90;;;-5.28;95.12;103137.66;6148319;22;20009;-78
2024/01/10 01:52:11;;;;;;;36.88;19.15;;;-3.20;99.90;;;-5.26;95.83;103138.63;6122303;23;20031;-79
2024/01/10 01:54:37;;;;;;;38.42;20.20;;;-3.30;99.90;;;-5.18;95.60;103137.38;6163860;22;20012;-80
2024/01/10 01:57:03;;;;;;;34.30;17.75;;;-3.30;99.90;;;-5.25;95.39;103139.50;6127346;22;20017;-78
2024/01/10 01:59:29;;;;;;;29.40;15.00;;;-3.30;99.90;;;-5.34;95.78;103139.00;6094067;22;20040;-78
2024/01/10 02:01:58;;;;;;;28.30;14.73;;;-3.30;99.90;;;-5.46;96.15;103129.81;6151642;22;20004;-79
2024/01/10 02:04:28;;;;;;;27.30;14.68;;;-3.40;99.90;;;-5.64;96.87;103129.59;6129580;23;20031;-78
2024/01/10 02:06:54;;;;;;;28.65;16.15;;;-3.50;99.90;;;-5.63;96.33;103123.69;6109984;22;20021;-79
2024/01/10 02:09:19;;;;;;;30.23;16.40;;;-3.50;99.90;;;-5.54;96.94;103122.44;6176814;23;20020;-78
2024/01/10 02:11:45;;;;;;;30.52;16.85;;;-3.50;99.90;;;-5.48;96.52;103118.56;6116754;22;20016;-79
2024/01/10 02:14:11;;;;;;;34.03;18.17;;;-3.50;99.90;;;-5.39;97.05;103119.06;6110229;22;20027;-78
2024/01/10 02:16:42;;;;;;;31.00;17.33;;;-3.50;99.90;;;-5.28;96.72;103122.25;6132902;22;20016;-79
2024/01/10 02:19:21;;;;;;;39.95;17.98;;;-3.40;99.90;;;-5.20;96.39;103115.00;6174324;22;20015;-78
2024/01/10 02:21:47;;;;;;;33.70;18.05;;;-3.30;99.90;;;-5.13;95.75;103126.50;6135031;22;20019;-79
2024/01/10 02:24:13;;;;;;;37.40;18.05;;;-3.30;99.90;;;-5.09;95.94;103113.91;6185734;22;20016;-78
2024/01/10 02:26:40;;;;;;;34.20;18.45;;;-3.20;99.90;;;-5.02;96.04;103120.25;6159903;23;20179;-79
2024/01/10 02:29:06;;;;;;;29.38;15.77;;;-3.20;99.90;;;-4.99;96.05;103121.34;6144690;23;20159;-78
2024/01/10 02:31:34;;;;;;;28.77;16.95;;;-3.20;99.90;;;-4.97;95.91;103116.25;6125482;23;20013;-78
2024/01/10 02:34:02;;;;;;;30.25;15.55;;;-3.10;99.90;;;-4.94;95.35;103119.00;6183405;23;20012;-78
2024/01/10 02:36:28;;;;;;;35.38;17.42;;;-3.10;99.90;;;-4.92;95.61;103119.06;6134581;23;20013;-79
2024/01/10 02:38:54;;;;;;;30.83;16.38;;;-3.10;99.90;;;-4.92;95.60;103117.41;6124434;23;20013;-78
2024/01/10 02:41:20;;;;;;;33.83;16.98;;;-3.10;99.90;;;-4.88;94.91;103127.06;6128875;23;20345;-79
2024/01/10 02:43:46;;;;;;;31.60;15.93;;;-3.10;99.90;;;-4.84;94.88;103131.53;6117333;22;20020;-79
2024/01/10 02:46:19;;;;;;;32.03;16.65;;;-3.00;99.90;;;-4.80;94.83;103130.91;6126924;22;20040;-78
2024/01/10 02:48:46;;;;;;;30.33;16.15;;;-3.00;99.90;;;-4.81;95.01;103134.31;6138900;22;20027;-78
2024/01/10 02:51:11;;;;;;;32.00;15.88;;;-3.00;99.90;;;-4.87;94.96;103139.09;6155188;23;20465;-78
2024/01/10 02:53:37;;;;;;;37.13;13.40;;;-3.00;99.90;;;-4.96;95.04;103146.31;6184204;23;20098;-78
2024/01/10 02:56:03;;;;;;;38.08;12.02;;;-3.00;99.90;;;-4.99;95.14;103140.97;6145975;22;20080;-78
2024/01/10 02:58:36;;;;;;;26.95;12.77;;;-3.10;99.90;;;-4.94;95.74;103131.84;6157431;22;20334;-78
2024/01/10 03:01:03;;;;;;;42.92;14.68;;;-3.10;99.90;;;-4.91;95.41;103129.44;6163707;22;20096;-77
2024/01/10 03:03:28;;;;;;;33.85;14.68;;;-3.10;99.90;;;-4.87;95.26;103131.38;6157367;23;20025;-78
2024/01/10 03:05:54;;;;;;;41.75;14.88;;;-3.00;99.90;;;-4.82;95.69;103132.50;6159256;23;20016;-79
2024/01/10 03:08:27;;;;;;;52.55;14.18;;;-3.00;99.90;;;-4.76;95.71;103134.56;6093489;23;20406;-79
2024/01/10 03:10:53;;;;;;;47.00;12.68;;;-3.00;99.90;;;-4.72;95.10;103130.47;6124690;23;20118;-78
2024/01/10 03:13:19;;;;;;;48.35;11.73;;;-2.90;99.90;;;-4.69;95.45;103125.50;6125018;23;20028;-78
2024/01/10 03:15:44;;;;;;;35.25;11.20;;;-2.90;99.90;;;-4.68;95.06;103122.13;6106484;23;20023;-79
2024/01/10 03:18:10;;;;;;;55.58;11.98;;;-2.90;99.90;;;-4.69;96.00;103125.50;6100982;23;20019;-78
2024/01/10 03:20:36;;;;;;;52.63;11.60;;;-2.90;99.90;;;-4.70;95.14;103123.72;6099332;23;20095;-79
2024/01/10 03:23:02;;;;;;;64.68;12.43;;;-2.90;99.90;;;-4.69;95.39;103122.91;6045650;23;20012;-79
2024/01/10 03:25:30;;;;;;;57.65;12.98;;;-2.90;99.90;;;-4.68;95.89;103122.13;6060323;23;20024;-78
2024/01/10 03:27:56;;;;;;;35.65;11.93;;;-2.90;99.90;;;-4.74;95.50;103118.41;6093704;23;20137;-79
2024/01/10 03:30:24;;;;;;;28.65;11.50;;;-2.90;99.90;;;-4.81;95.76;103106.03;6105188;23;20453;-78
2024/01/10 03:32:50;;;;;;;64.43;12.25;;;-2.90;99.90;;;-4.83;96.35;103110.19;6061091;23;22515;-77
2024/01/10 03:35:15;;;;;;;39.35;12.43;;;-3.00;99.90;;;-4.83;96.08;103111.91;6132176;23;20020;-78
2024/01/10 03:37:46;;;;;;;47.85;17.05;;;-3.00;99.90;;;-4.84;96.38;103108.41;6079879;23;20051;-78
2024/01/10 03:40:13;;;;;;;50.67;16.80;;;-3.00;99.90;;;-4.86;96.99;103107.47;6048408;23;20068;-78
2024/01/10 03:42:38;;;;;;;48.58;17.90;;;-3.00;99.90;;;-4.90;96.71;103099.47;6102594;23;20071;-78
2024/01/10 03:45:05;;;;;;;44.53;16.35;;;-3.00;99.90;;;-4.93;97.36;103100.22;6088629;23;20068;-79
2024/01/10 03:47:31;;;;;;;44.40;18.52;;;-3.10;99.90;;;-4.97;97.07;103103.41;6204414;23;20063;-78
2024/01/10 03:50:01;;;;;;;55.67;16.90;;;-3.00;99.90;;;-4.96;97.89;103089.78;6182257;23;20091;-79
2024/01/10 03:52:27;;;;;;;40.15;16.90;;;-3.10;99.90;;;-4.93;98.08;103096.75;6163733;22;20471;-79
2024/01/10 03:54:53;;;;;;;47.78;16.90;;;-3.00;99.90;;;-4.91;97.71;103098.59;6115617;22;20083;-78
2024/01/10 03:57:19;;;;;;;52.40;16.25;;;-3.00;99.90;;;-4.89;98.23;103102.16;6114342;22;20656;-78
2024/01/10 03:59:44;;;;;;;44.80;16.88;;;-3.00;99.90;;;-4.90;98.18;103095.25;6103090;23;20012;-79
2024/01/10 04:02:11;;;;;;;42.28;16.15;;;-3.00;99.90;;;-4.89;98.45;103091.88;6062493;23;20091;-78
2024/01/10 04:04:38;;;;;;;40.67;15.85;;;-3.00;99.90;;;-4.86;98.34;103093.72;6107952;23;20012;-80
2024/01/10 04:07:07;;;;;;;42.80;15.77;;;-3.00;99.90;;;-4.87;98.04;103095.41;6113142;23;20013;-79
2024/01/10 04:09:32;;;;;;;38.85;16.63;;;-3.00;99.90;;;-4.86;98.66;103092.06;6090116;23;20028;-79
2024/01/10 04:11:58;;;;;;;49.35;13.20;;;-3.00;99.90;;;-4.87;98.84;103085.13;6088292;23;20083;-78
2024/01/10 04:14:24;;;;;;;44.78;15.85;;;-3.00;99.90;;;-4.86;98.50;103080.88;6053476;23;20005;-79
2024/01/10 04:16:50;;;;;;;42.63;15.77;;;-3.00;99.90;;;-4.88;99.18;103080.81;6106884;23;20447;-78
2024/01/10 04:19:25;;;;;;;51.67;19.00;;;-3.00;99.90;;;-4.90;98.92;103082.41;6111591;23;20458;-79
2024/01/10 04:21:51;;;;;;;40.80;16.77;;;-3.00;99.90;;;-4.93;99.15;103077.09;6135958;22;20071;-79
2024/01/10 04:24:16;;;;;;;49.30;20.02;;;-3.10;99.90;;;-4.93;99.43;103073.63;6079123;22;20137;-78
2024/01/10 04:26:42;;;;;;;39.10;19.42;;;-3.00;99.90;;;-4.91;99.51;103072.91;6113893;22;20631;-78
2024/01/10 04:29:10;;;;;;;43.05;20.52;;;-3.00;99.90;;;-4.88;100.00;103078.22;6132571;22;20076;-79
2024/01/10 04:31:38;;;;;;;41.05;19.10;;;-3.00;99.90;;;-4.85;99.61;103080.09;6082472;23;20035;-79
2024/01/10 04:34:04;;;;;;;53.00;19.92;;;-3.00;99.90;;;-4.84;99.37;103075.00;6062685;23;20089;-78
2024/01/10 04:36:31;;;;;;;48.53;19.90;;;-3.00;99.90;;;-4.83;99.49;103073.34;6155220;23;20096;-78
2024/01/10 04:38:57;;;;;;;50.28;20.23;;;-3.00;99.90;;;-4.80;99.64;103073.50;6081613;23;20406;-78
2024/01/10 04:41:22;;;;;;;49.05;19.83;;;-3.00;99.90;;;-4.79;99.25;103086.44;6100748;23;20091;-78
2024/01/10 04:43:51;;;;;;;45.50;19.13;;;-3.00;99.90;;;-4.80;99.07;103076.06;6144136;23;20063;-79
2024/01/10 04:46:19;;;;;;;67.25;21.13;;;-2.90;99.90;;;-4.81;99.55;103070.03;6082481;23;20055;-78
2024/01/10 04:48:45;;;;;;;66.93;20.17;;;-2.90;99.90;;;-4.83;99.04;103056.22;6101999;23;20017;-80
2024/01/10 04:51:10;;;;;;;55.67;19.63;;;-2.90;99.90;;;-4.82;99.56;103068.25;6085070;23;20135;-78
2024/01/10 04:53:36;;;;;;;55.20;20.13;;;-2.90;99.90;;;-4.80;99.56;103061.50;6068343;23;20062;-79
2024/01/10 04:56:02;;;;;;;74.50;17.75;;;-3.00;99.90;;;-4.81;99.52;103061.47;6118072;23;20013;-79
2024/01/10 04:58:29;;;;;;;73.53;19.20;;;-2.90;99.90;;;-4.82;99.32;103060.53;6125013;23;20188;-79
2024/01/10 05:00:55;;;;;;;62.78;19.95;;;-2.90;99.90;;;-4.76;99.74;103062.56;6088903;23;20016;-79
2024/01/10 05:03:23;;;;;;;54.40;19.38;;;-2.90;99.90;;;-4.75;99.61;103061.78;6120708;23;20009;-78
2024/01/10 05:05:49;;;;;;;76.72;21.75;;;-2.90;99.90;;;-4.71;98.91;103065.38;6090233;23;20020;-77
2024/01/10 05:08:15;;;;;;;59.38;21.35;;;-2.90;99.90;;;-4.70;99.02;103065.47;6083803;23;20012;-78
2024/01/10 05:10:41;;;;;;;56.95;20.90;;;-2.90;99.90;;;-4.70;99.69;103068.06;6062648;23;20144;-78
2024/01/10 05:13:06;;;;;;;56.78;21.98;;;-2.90;99.90;;;-4.69;98.98;103069.81;6110413;23;20139;-77
2024/01/10 05:15:40;;;;;;;55.10;21.38;;;-2.80;99.90;;;-4.67;98.86;103065.63;6107530;23;20019;-78
2024/01/10 05:18:06;;;;;;;74.90;25.40;;;-2.80;99.90;;;-4.65;99.00;103065.72;6121007;23;20068;-80
2024/01/10 05:20:32;;;;;;;74.82;27.60;;;-2.80;99.90;;;-4.66;99.18;103063.97;6104735;23;20013;-78
2024/01/10 05:22:58;;;;;;;62.10;25.10;;;-2.80;99.90;;;-4.65;98.99;103063.16;6098761;23;20007;-79
2024/01/10 05:25:32;;;;;;;53.30;22.25;;;-2.80;99.90;;;-4.66;99.40;103069.09;6142404;23;20083;-79
2024/01/10 05:27:58;;;;;;;71.88;20.67;;;-2.80;99.90;;;-4.69;98.83;103068.94;6157597;23;20035;-79
2024/01/10 05:30:24;;;;;;;69.35;21.67;;;-2.80;99.90;;;-4.70;99.38;103064.59;6134181;23;20012;-79
2024/01/10 05:32:50;;;;;;;71.40;22.00;;;-2.90;99.90;;;-4.72;99.23;103058.50;6159478;22;20080;-78
2024/01/10 05:35:22;;;;;;;56.78;20.58;;;-2.80;99.90;;;-4.76;99.96;103065.16;6151883;22;20088;-78
2024/01/10 05:37:48;;;;;;;50.60;21.98;;;-2.90;99.90;;;-4.74;99.95;103063.53;6140306;22;20815;-79
2024/01/10 05:40:14;;;;;;;57.90;22.40;;;-2.90;99.90;;;-4.73;100.00;103065.28;6120683;22;20004;-78
2024/01/10 05:42:39;;;;;;;66.10;19.27;;;-2.90;99.90;;;-4.76;100.00;103062.56;6097307;23;20009;-78
2024/01/10 05:45:06;;;;;;;50.55;19.70;;;-2.90;99.90;;;-4.75;100.00;103060.09;6132947;22;20020;-79
2024/01/10 05:47:34;;;;;;;51.95;19.40;;;-2.90;99.90;;;-4.75;100.00;103052.38;6140298;23;20023;-79
2024/01/10 05:50:06;;;;;;;64.22;21.70;;;-2.90;99.90;;;-4.76;100.00;103058.31;6098131;23;20483;-78
2024/01/10 05:52:32;;;;;;;75.75;20.83;;;-2.90;99.90;;;-4.78;100.00;103049.63;6152100;23;20016;-78
2024/01/10 05:54:58;;;;;;;67.82;23.88;;;-2.90;99.90;;;-4.79;100.00;103055.59;6146406;22;20016;-80
2024/01/10 05:57:29;;;;;;;66.93;23.77;;;-2.90;99.90;;;-4.82;100.00;103052.84;6128420;22;20729;-78
2024/01/10 05:59:56;;;;;;;74.70;23.67;;;-2.90;99.90;;;-4.82;100.00;103049.41;6138075;22;20555;-78
2024/01/10 06:02:24;;;;;;;62.22;23.58;;;-3.00;99.90;;;-4.84;100.00;103046.72;6124597;23;20008;-78
2024/01/10 06:04:50;;;;;;;59.95;21.92;;;-2.90;99.90;;;-4.83;100.00;103048.50;6165884;22;20025;-78
2024/01/10 06:07:18;;;;;;;47.40;20.77;;;-2.90;99.90;;;-4.82;100.00;103059.66;6170989;22;20043;-79
2024/01/10 06:09:47;;;;;;;74.28;19.63;;;-3.00;99.90;;;-4.86;100.00;103056.06;6158441;22;20062;-78
2024/01/10 06:12:13;;;;;;;70.72;23.23;;;-3.00;99.90;;;-4.85;100.00;103046.66;6190386;22;20768;-78
2024/01/10 06:14:39;;;;;;;62.50;23.98;;;-3.00;99.90;;;-4.87;100.00;103044.00;6153819;22;20016;-79
2024/01/10 06:17:05;;;;;;;63.90;22.23;;;-3.00;99.90;;;-4.88;100.00;103046.50;6175691;22;20534;-79
2024/01/10 06:19:31;;;;;;;75.63;27.20;;;-3.00;99.90;;;-4.89;100.00;103050.75;6159328;22;20017;-78
2024/01/10 06:22:01;;;;;;;84.85;24.48;;;-3.00;99.90;;;-4.85;100.00;103044.97;6138685;23;20005;-79
2024/01/10 06:24:27;;;;;;;75.32;23.30;;;-3.00;99.90;;;-4.88;100.00;103044.81;6128610;23;20480;-79
2024/01/10 06:26:52;;;;;;;77.07;23.02;;;-3.00;99.90;;;-4.89;100.00;103043.03;6075460;23;20018;-78
2024/01/10 06:29:18;;;;;;;74.38;24.20;;;-3.00;99.90;;;-4.91;100.00;103038.63;6144096;23;20100;-79
2024/01/10 06:31:44;;;;;;;74.53;26.83;;;-3.00;99.90;;;-4.91;100.00;103047.22;6149385;23;20067;-79
2024/01/10 06:34:10;;;;;;;73.50;27.48;;;-3.00;99.90;;;-4.85;100.00;103047.53;6080733;23;20012;-78
2024/01/10 06:36:39;;;;;;;94.03;28.55;;;-3.00;99.90;;;-4.84;100.00;103049.31;6080301;23;20016;-79
2024/01/10 06:39:12;;;;;;;83.93;27.67;;;-3.00;99.90;;;-4.82;100.00;103052.84;6098649;23;20013;-78
2024/01/10 06:41:38;;;;;;;87.03;29.17;;;-3.00;99.90;;;-4.83;100.00;103043.38;6148593;23;20037;-78
2024/01/10 06:44:12;;;;;;;61.45;22.63;;;-3.00;99.90;;;-4.84;100.00;103049.31;6130372;23;20071;-79
2024/01/10 06:46:37;;;;;;;98.13;28.58;;;-3.00;99.90;;;-4.82;100.00;103054.53;6087194;23;20023;-78
2024/01/10 06:49:03;;;;;;;77.22;25.23;;;-2.90;99.90;;;-4.84;100.00;103043.28;6099432;23;20615;-77
2024/01/10 06:51:29;;;;;;;100.80;27.05;;;-2.90;99.90;;;-4.81;100.00;103046.91;6125843;23;20085;-77
2024/01/10 06:54:02;;;;;;;97.60;26.75;;;-2.90;99.90;;;-4.78;100.00;103044.50;6099350;23;20017;-79
2024/01/10 06:56:28;;;;;;;75.50;24.08;;;-2.90;99.90;;;-4.85;100.00;103047.53;6100645;23;20016;-79
2024/01/10 06:58:54;;;;;;;78.40;27.92;;;-3.00;99.90;;;-4.83;100.00;103045.94;6094688;23;20042;-78
2024/01/10 07:01:21;;;;;;;68.35;24.35;;;-3.00;99.90;;;-4.86;100.00;103043.22;6119710;23;20049;-78
2024/01/10 07:03:48;;;;;;;80.40;24.15;;;-3.00;99.90;;;-4.86;100.00;103037.16;6162932;23;20021;-79
2024/01/10 07:06:20;;;;;;;87.88;26.70;;;-3.00;99.90;;;-4.85;100.00;103041.53;6135519;23;20060;-78
2024/01/10 07:08:49;;;;;;;82.68;25.85;;;-2.90;99.90;;;-4.85;100.00;103037.25;6161270;23;20016;-79
2024/01/10 07:11:16;;;;;;;86.72;28.45;;;-3.00;99.90;;;-4.82;100.00;103036.53;6138715;23;20009;-78
2024/01/10 07:13:42;;;;;;;74.10;26.17;;;-2.90;99.90;;;-4.82;100.00;103039.09;6102942;23;20349;-78
2024/01/10 07:16:09;;;;;;;76.40;24.02;;;-2.90;99.90;;;-4.82;100.00;103032.28;6126609;23;20005;-79
2024/01/10 07:18:35;;;;;;;94.90;27.15;;;-2.90;99.90;;;-4.80;100.00;103033.25;6071359;23;20441;-79
2024/01/10 07:21:01;;;;;;;105.57;30.40;;;-2.90;99.90;;;-4.75;100.00;103033.50;6137667;23;20104;-77
2024/01/10 07:23:27;;;;;;;105.15;30.05;;;-2.90;99.90;;;-4.73;100.00;103037.03;6130594;23;20017;-80
2024/01/10 07:25:53;;;;;;;90.10;26.77;;;-2.90;99.90;;;-4.72;100.00;103033.66;6107537;23;20047;-78
2024/01/10 07:28:19;;;;;;;75.68;25.90;;;-2.90;99.90;;;-4.71;100.00;103039.69;6077003;23;20009;-78
2024/01/10 07:30:55;;;;;;;97.93;29.02;;;-2.80;99.90;;;-4.67;100.00;103041.63;6119717;23;20013;-79
2024/01/10 07:33:20;;;;;;;76.70;26.63;;;-2.90;99.90;;;-4.68;100.00;103039.88;6076012;23;20015;-80
2024/01/10 07:35:46;;;;;;;83.32;27.20;;;-2.80;99.90;;;-4.65;100.00;103034.88;6127893;23;20080;-79
2024/01/10 07:38:15;;;;;;;82.57;26.42;;;-2.80;99.90;;;-4.60;100.00;103043.69;6123628;23;20025;-78
2024/01/10 07:40:43;;;;;;;85.72;26.60;;;-2.80;99.90;;;-4.59;100.00;103040.34;6146287;23;20412;-77
2024/01/10 07:43:11;;;;;;;87.63;28.50;;;-2.80;99.90;;;-4.59;100.00;103042.91;6178631;23;20483;-79
2024/01/10 07:45:37;;;;;;;82.20;26.95;;;-2.80;99.90;;;-4.60;100.00;103039.47;6087009;23;20019;-78
2024/01/10 07:48:02;;;;;;;77.72;26.27;;;-2.70;99.90;;;-4.61;100.00;103037.69;6099697;23;20018;-79
2024/01/10 07:50:30;;;;;;;81.85;28.60;;;-2.80;99.90;;;-4.56;100.00;103040.50;6135505;23;20017;-78
2024/01/10 07:52:59;;;;;;;79.45;27.83;;;-2.70;99.90;;;-4.53;100.00;103043.25;6142976;23;20005;-78
2024/01/10 07:55:25;;;;;;;76.05;25.73;;;-2.70;99.90;;;-4.54;100.00;103041.47;6092988;23;20033;-78
2024/01/10 07:57:51;;;;;;;74.70;25.15;;;-2.70;99.90;;;-4.54;100.00;103044.03;6086331;23;20147;-77
2024/01/10 08:00:20;;;;;;;81.50;27.55;;;-2.70;99.90;;;-4.52;100.00;103042.41;6060441;23;20081;-79
2024/01/10 08:02:53;;;;;;;72.35;27.00;;;-2.70;99.90;;;-4.50;100.00;103039.94;6103526;23;19997;-78
2024/01/10 08:05:21;;;;;;;85.10;28.27;;;-2.70;99.90;;;-4.47;100.00;103043.56;6130001;23;20024;-78
2024/01/10 08:07:48;;;;;;;75.95;27.48;;;-2.60;99.90;;;-4.47;100.00;103051.28;6119239;23;20070;-79
2024/01/10 08:10:19;;;;;;;75.30;27.83;;;-2.60;99.90;;;-4.42;100.00;103049.81;6090120;23;20013;-78
2024/01/10 08:12:44;;;;;;;81.97;28.20;;;-2.60;99.90;;;-4.38;100.00;103049.19;6113892;23;20071;-79
2024/01/10 08:15:11;;;;;;;79.70;25.80;;;-2.60;99.90;;;-4.33;100.00;103052.84;6141666;23;20455;-78
2024/01/10 08:17:37;;;;;;;79.18;27.42;;;-2.50;99.90;;;-4.30;100.00;103061.53;6086188;23;20017;-79
2024/01/10 08:20:06;;;;;;;73.32;27.80;;;-2.50;99.90;;;-4.25;100.00;103065.25;6105654;23;20019;-78
2024/01/10 08:22:32;;;;;;;82.72;28.30;;;-2.40;99.90;;;-4.23;100.00;103061.03;6085949;23;20024;-78
2024/01/10 08:24:58;;;;;;;78.45;27.92;;;-2.40;99.90;;;-4.20;100.00;103062.09;6087683;23;20413;-78
2024/01/10 08:27:23;;;;;;;74.35;27.50;;;-2.40;99.90;;;-4.18;100.00;103057.03;6118210;23;20032;-79
2024/01/10 08:29:49;;;;;;;73.25;27.00;;;-2.40;99.90;;;-4.19;100.00;103060.41;6153294;23;20091;-80
2024/01/10 08:32:17;;;;;;;68.32;25.27;;;-2.40;99.90;;;-4.16;100.00;103053.72;6114093;23;20063;-78
2024/01/10 08:34:44;;;;;;;58.13;21.38;;;-2.30;99.90;;;-4.14;100.00;103061.53;6100345;23;20040;-78
2024/01/10 08:37:10;;;;;;;55.47;21.70;;;-2.30;99.90;;;-4.16;100.00;103055.44;6082499;23;20525;-78
2024/01/10 08:39:36;;;;;;;54.10;23.23;;;-2.30;99.90;;;-4.14;100.00;103048.69;6112676;23;20092;-78
2024/01/10 08:42:02;;;;;;;53.40;21.85;;;-2.30;99.90;;;-4.13;100.00;103053.88;6102813;23;20109;-78
2024/01/10 08:44:28;;;;;;;68.00;23.20;;;-2.30;99.90;;;-4.10;100.00;103048.03;6076428;23;21178;-79
2024/01/10 08:46:54;;;;;;;68.40;26.02;;;-2.30;99.90;;;-4.08;100.00;103049.00;6113189;23;20063;-78
2024/01/10 08:49:20;;;;;;;64.50;24.20;;;-2.30;99.90;;;-4.04;100.00;103047.44;6124415;23;20497;-79
2024/01/10 08:51:46;;;;;;;72.72;26.95;;;-2.20;99.90;;;-4.01;100.00;103051.06;6113561;23;20119;-79
2024/01/10 08:54:22;;;;;;;75.95;27.95;;;-2.20;99.90;;;-3.95;100.00;103053.06;6125969;23;20013;-79
2024/01/10 08:56:48;;;;;;;58.63;23.52;;;-2.20;99.90;;;-3.96;100.00;103054.72;6130153;23;20021;-80
2024/01/10 08:59:14;;;;;;;62.92;27.10;;;-2.20;99.90;;;-3.96;100.00;103052.16;6115378;23;20516;-78
2024/01/10 09:01:48;;;;;;;60.72;25.20;;;-2.20;99.90;;;-3.95;100.00;103046.22;6141444;23;20072;-80
2024/01/10 09:04:14;;;;;;;78.30;28.42;;;-2.20;99.90;;;-3.93;100.00;103052.34;6104419;23;20369;-78
2024/01/10 09:06:40;;;;;;;71.18;28.15;;;-2.10;99.90;;;-3.89;100.00;103058.50;6143322;23;20019;-78
2024/01/10 09:09:06;;;;;;;74.57;29.75;;;-2.10;99.90;;;-3.85;100.00;103055.28;6104746;23;20069;-78
2024/01/10 09:11:34;;;;;;;63.72;25.08;;;-2.00;99.90;;;-3.80;100.00;103058.06;6094354;23;20037;-79
2024/01/10 09:14:02;;;;;;;66.65;27.20;;;-2.00;99.90;;;-3.76;100.00;103054.84;6145556;23;20016;-78
2024/01/10 09:16:28;;;;;;;64.53;27.08;;;-2.00;99.90;;;-3.75;100.00;103056.63;6096203;23;20028;-78
2024/01/10 09:18:57;;;;;;;66.63;26.92;;;-1.90;99.90;;;-3.72;100.00;103046.47;6139547;23;20016;-78
2024/01/10 09:21:25;;;;;;;55.35;23.58;;;-1.90;99.90;;;-3.69;100.00;103056.94;6125139;23;20342;-79
2024/01/10 09:23:56;;;;;;;58.70;22.67;;;-1.90;99.90;;;-3.67;100.00;103051.84;6130575;23;20027;-79
2024/01/10 09:26:23;;;;;;;55.55;24.10;;;-1.90;99.90;;;-3.66;100.00;103051.94;6121358;23;20465;-79
2024/01/10 09:28:49;;;;;;;65.03;25.85;;;-1.80;99.90;;;-3.60;100.00;103054.81;6111064;23;20017;-79
2024/01/10 09:31:33;;;;;;;58.80;24.73;;;-1.80;99.90;;;-3.55;100.00;103060.19;6121506;23;20024;-78
2024/01/10 09:34:02;;;;;;;64.60;25.83;;;-1.80;99.90;;;-3.52;100.00;103053.50;6129568;23;20019;-79
2024/01/10 09:36:28;;;;;;;64.18;26.13;;;-1.70;99.90;;;-3.48;100.00;103051.94;6143257;23;20464;-78
2024/01/10 09:38:54;;;;;;;60.30;25.83;;;-1.70;99.90;;;-3.44;100.00;103056.44;6093999;23;20623;-78
2024/01/10 09:41:20;;;;;;;53.85;23.65;;;-1.70;99.90;;;-3.41;100.00;103060.84;6109554;23;20016;-79
2024/01/10 09:43:46;;;;;;;62.70;25.92;;;-1.70;99.90;;;-3.38;100.00;103055.84;6102489;23;20025;-79
2024/01/10 09:46:19;;;;;;;65.40;26.38;;;-1.60;99.90;;;-3.35;100.00;103053.41;6107303;23;20082;-78
2024/01/10 09:48:45;;;;;;;63.90;25.95;;;-1.60;99.90;;;-3.27;100.00;103049.50;6109470;23;20009;-79
2024/01/10 09:51:15;;;;;;;59.40;25.00;;;-1.50;99.90;;;-3.26;100.00;103050.38;6087613;23;20018;-80
2024/01/10 09:53:49;;;;;;;55.22;24.50;;;-1.50;99.90;;;-3.19;100.00;103063.66;6097966;22;20084;-79
2024/01/10 09:56:15;;;;;;;57.33;22.60;;;-1.40;99.90;;;-3.12;100.00;103060.53;6104275;22;20549;-78
2024/01/10 09:58:48;;;;;;;56.63;22.73;;;-1.40;99.90;;;-3.11;100.00;103049.44;6156782;22;20019;-80